Terminal Aerodrome Forecast
Issued by NWS Sterling, VA

Home | Current Version | Previous Version | Text Only | Print | Product List | Glossary On
Versions: 1 2 3 4 5 6 7 8 9 10 11 12
000
FTUS41 KLWX 020538
TAFMRB
TAF
KMRB 020538Z 0206/0306 17004KT P6SM SKC
     FM021400 18008KT P6SM FEW250
     FM021600 19012KT P6SM SCT250
     FM022000 19016G25KT P6SM BKN100
     FM030000 19012KT P6SM BKN060=

USA.gov is the U.S. government's official web portal to all federal, state and local government web resources and services.